M I D A S
Marine Information and Data Acquisition System
Tripno 183 of the Zeeleeuw from 2001-12-04 09:15:00 to 2001-12-04 16:20:00
Back to CruiseResearch ActivitiesStationsMapUnderway DataData graphs

EquipmentUnitsComments
TimeDGPSUTC
LatitudeDGPSDM.mWGS84
LongitudeDGPSDM.mWGS84
SpeedMeteo Stationm/sRelative wind speed
DirectionMeteo StationdegRelative wind direction
TemperatureMeteo Stationdeg CelciusAir temperature
PressureMeteo StationPaAtmospheric pressure
HumidityMeteo Station%Relative humidity
Missing or incorrect values are displayed as -999
Metereological data collected by the RV Zeeleeuw from 2001-12-04 09:15:00 to 2001-12-04 16:20:00
Time Latitude Longitude Speed Direction Temperature Pressure Humidity
2001-12-04 09:16 51°13.426 2°50.822 1.4 91 10.8 100820 85
2001-12-04 09:17 51°13.436 2°50.79 7.8 335 10.8 100820 85
2001-12-04 09:18 51°13.415 2°50.691 13.8 336 10.8 100790 85
2001-12-04 09:19 51°13.304 2°50.501 18.4 340 10.8 100800 85
2001-12-04 09:20 51°13.192 2°50.199 17.2 347 10.9 100790 85
2001-12-04 09:21 51°13.063 2°49.88 20.4 341 11 100800 84
2001-12-04 09:22 51°12.937 2°49.561 19.5 339 11.1 100760 84
2001-12-04 09:23 51°12.81 2°49.242 21.2 334 11.2 100800 84
2001-12-04 09:24 51°12.681 2°48.921 20.5 334 11.2 100780 84
2001-12-04 09:25 51°12.553 2°48.598 21.4 335 11.3 100790 84
2001-12-04 09:26 51°12.427 2°48.279 20.5 335 11.3 100790 84
2001-12-04 09:27 51°12.298 2°47.956 21.2 335 11.4 100800 83
2001-12-04 09:28 51°12.168 2°47.627 21.1 339 11.5 100780 83
2001-12-04 09:29 51°12.042 2°47.309 22.2 336 11.5 100780 83
2001-12-04 09:30 51°11.921 2°46.971 21.5 335 11.5 100790 82
2001-12-04 09:31 51°11.802 2°46.639 20 337 11.5 100790 83
2001-12-04 09:32 51°11.685 2°46.305 21.1 333 11.6 100800 82
2001-12-04 09:33 51°11.57 2°45.972 20.1 335 11.6 100790 82
2001-12-04 09:34 51°11.457 2°45.639 21.2 332 11.6 100790 81
2001-12-04 09:35 51°11.35 2°45.302 21.6 337 11.6 100780 81
2001-12-04 09:36 51°11.243 2°44.964 22.5 340 11.6 100800 81
2001-12-04 09:37 51°11.136 2°44.634 23 337 11.6 100810 81
2001-12-04 09:38 51°11.028 2°44.298 21.2 337 11.6 100800 81
2001-12-04 09:39 51°10.927 2°43.952 21.9 342 11.6 100820 82
2001-12-04 09:40 51°10.835 2°43.605 19.5 338 11.6 100800 82
2001-12-04 09:41 51°10.743 2°43.266 21.8 339 11.6 100810 81
2001-12-04 09:42 51°10.655 2°42.913 21.9 336 11.7 100810 80
2001-12-04 09:43 51°10.569 2°42.565 21.4 342 11.7 100810 79
2001-12-04 09:44 51°10.491 2°42.212 26.3 339 11.7 100810 80
2001-12-04 09:45 51°10.414 2°41.86 20.6 341 11.8 100810 78
2001-12-04 09:46 51°10.335 2°41.508 21.4 339 11.8 100810 79
2001-12-04 09:47 51°10.243 2°41.163 21.5 337 11.8 100820 79
2001-12-04 09:48 51°10.131 2°40.844 22.4 332 11.8 100820 79
2001-12-04 09:49 51°9.999 2°40.537 21.4 329 11.8 100810 78
2001-12-04 09:50 51°9.91 2°40.204 21.8 343 11.8 100840 78
2001-12-04 09:51 51°9.849 2°39.85 21.4 341 11.8 100840 78
2001-12-04 09:52 51°9.781 2°39.502 19.9 335 11.8 100840 78
2001-12-04 09:53 51°9.717 2°39.138 21.7 341 11.8 100840 78
2001-12-04 09:54 51°9.655 2°38.778 20.3 338 11.8 100840 79
2001-12-04 09:55 51°9.593 2°38.418 21.8 342 11.8 100850 78
2001-12-04 09:56 51°9.531 2°38.063 23.2 343 11.8 100860 78
2001-12-04 09:57 51°9.47 2°37.695 20.8 332 11.9 100850 78
2001-12-04 09:58 51°9.409 2°37.339 19 343 11.9 100840 78
2001-12-04 09:59 51°9.352 2°36.967 20.7 346 11.9 100850 77
2001-12-04 10:00 51°9.295 2°36.605 20.3 334 11.9 100850 77
2001-12-04 10:01 51°9.243 2°36.228 24.3 341 11.9 100850 76
2001-12-04 10:02 51°9.192 2°35.856 21.5 341 11.9 100840 76
2001-12-04 10:03 51°9.142 2°35.491 20.4 346 11.9 100860 77
2001-12-04 10:04 51°9.09 2°35.115 21.8 343 11.9 100840 78
2001-12-04 10:05 51°9.039 2°34.746 19.2 339 11.9 100850 78
2001-12-04 10:06 51°8.989 2°34.377 20.7 336 11.9 100870 78
2001-12-04 10:07 51°8.937 2°34.008 22.3 339 11.8 100860 78
2001-12-04 10:08 51°8.884 2°33.641 20.9 334 11.9 100840 77
2001-12-04 10:09 51°8.839 2°33.356 15.7 338 11.8 100870 78
2001-12-04 10:10 51°8.82 2°33.282 13.2 355 11.8 100880 78
2001-12-04 10:11 51°8.804 2°33.296 7.7 29 11.8 100880 78
2001-12-04 10:12 51°8.805 2°33.267 9.3 29 11.8 100880 78
2001-12-04 10:13 51°8.805 2°33.253 4.1 344 11.8 100910 78
2001-12-04 10:14 51°8.802 2°33.251 0.8 109 11.8 100880 78
2001-12-04 10:15 51°8.794 2°33.25 1.2 73 11.7 100930 78
2001-12-04 10:16 51°8.787 2°33.251 3.1 83 11.7 100920 78
2001-12-04 10:17 51°8.781 2°33.251 4.1 75 11.7 100920 78
2001-12-04 10:18 51°8.775 2°33.249 0.8 55 11.7 100930 78
2001-12-04 10:19 51°8.77 2°33.246 2.1 79 11.7 100910 79
2001-12-04 10:20 51°8.764 2°33.243 1.7 359 11.7 100930 78
2001-12-04 10:21 51°8.758 2°33.243 1 58 11.7 100930 79
2001-12-04 10:22 51°8.752 2°33.243 1.4 51 11.7 100930 77
2001-12-04 10:23 51°8.744 2°33.245 1.2 51 11.7 100930 77
2001-12-04 10:24 51°8.736 2°33.249 2.3 56 11.7 100930 77
2001-12-04 10:25 51°8.732 2°33.251 0.4 50 11.7 100930 77
2001-12-04 10:26 51°8.771 2°33.21 6.8 27 11.7 100920 78
2001-12-04 10:27 51°8.817 2°33.132 12 33 11.7 100920 76
2001-12-04 10:28 51°8.855 2°33.054 9.9 21 11.8 100910 77
2001-12-04 10:29 51°8.886 2°32.987 8.2 31 11.8 100920 77
2001-12-04 10:30 51°8.884 2°32.982 4.4 352 11.8 100940 77
2001-12-04 10:31 51°8.876 2°32.987 1.5 93 11.7 100940 78
2001-12-04 10:32 51°8.869 2°32.991 1.5 77 11.6 100950 79
2001-12-04 10:33 51°8.865 2°32.996 2.1 70 11.6 100940 79
2001-12-04 10:34 51°8.862 2°32.998 0.8 50 11.6 100940 79
2001-12-04 10:35 51°8.859 2°33.002 0.4 323 11.6 100940 78
2001-12-04 10:36 51°8.857 2°33.005 1.4 17 11.6 100940 78
2001-12-04 10:37 51°8.855 2°33.009 2.1 52 11.6 100950 79
2001-12-04 10:38 51°8.852 2°33.013 0.8 65 11.5 100960 78
2001-12-04 10:39 51°8.847 2°33.018 0.3 72 11.5 100940 78
2001-12-04 10:40 51°8.843 2°33.024 1.6 99 11.6 100950 78
2001-12-04 10:41 51°8.841 2°33.028 1.2 117 11.5 100940 79
2001-12-04 10:42 51°8.838 2°33.033 1.5 47 11.5 100970 79
2001-12-04 10:43 51°8.834 2°33.038 3.1 41 11.5 100960 78
2001-12-04 10:44 51°8.831 2°33.044 0.4 77 11.6 100960 77
2001-12-04 10:45 51°8.828 2°33.048 0.2 75 11.6 100960 78
2001-12-04 10:46 51°8.826 2°33.053 0.4 46 11.6 100960 78
2001-12-04 10:47 51°8.823 2°33.056 2.2 74 11.6 100970 79
2001-12-04 10:48 51°8.821 2°33.06 1.6 75 11.5 100960 80
2001-12-04 10:49 51°8.816 2°33.065 0.6 73 11.5 100970 80
2001-12-04 10:50 51°8.811 2°33.072 2.1 26 11.5 100970 80
2001-12-04 10:51 51°8.807 2°33.079 1.4 48 11.5 100980 79
2001-12-04 10:52 51°8.804 2°33.087 2 71 11.5 100970 79
2001-12-04 10:53 51°8.802 2°33.095 4 178 11.4 100980 80
2001-12-04 10:54 51°8.801 2°33.102 4.1 93 11.5 100970 80
2001-12-04 10:55 51°8.799 2°33.108 0.5 82 11.4 100980 81
2001-12-04 10:56 51°8.798 2°33.115 1.2 43 11.4 100980 80
2001-12-04 10:57 51°8.797 2°33.122 0.8 52 11.4 100990 80
2001-12-04 10:58 51°8.795 2°33.129 3 68 11.4 100970 81
2001-12-04 10:59 51°8.792 2°33.138 0.3 82 11.4 100980 81
2001-12-04 11:00 51°8.79 2°33.147 0.8 82 11.4 100980 81
2001-12-04 11:01 51°8.788 2°33.156 2.6 83 11.4 100980 81
2001-12-04 11:02 51°8.787 2°33.165 2.3 63 11.4 100980 81
2001-12-04 11:03 51°8.785 2°33.171 0.9 70 11.4 100970 81
2001-12-04 11:04 51°8.784 2°33.182 2 57 11.4 100970 81
2001-12-04 11:05 51°8.783 2°33.192 1.5 91 11.4 100980 81
2001-12-04 11:06 51°8.782 2°33.201 2.5 25 11.3 100980 81
2001-12-04 11:07 51°8.778 2°33.214 2.9 109 11.4 100980 81
2001-12-04 11:08 51°8.774 2°33.228 1 79 11.3 100980 81
2001-12-04 11:09 51°8.771 2°33.241 2.1 66 11.3 100980 81
2001-12-04 11:10 51°8.769 2°33.254 0.4 53 11.3 100980 81
2001-12-04 11:11 51°8.768 2°33.267 2.5 76 11.3 100970 82
2001-12-04 11:12 51°8.769 2°33.281 1.6 74 11.3 100980 82
2001-12-04 11:13 51°8.772 2°33.294 0.9 121 11.3 100980 81
2001-12-04 11:14 51°8.773 2°33.309 0.9 54 11.3 100970 81
2001-12-04 11:15 51°8.774 2°33.325 0.3 33 11.3 100980 81
2001-12-04 11:16 51°8.775 2°33.341 2.4 72 11.3 100990 81
2001-12-04 11:17 51°8.777 2°33.357 1.8 45 11.3 100980 81
2001-12-04 11:18 51°8.778 2°33.373 0.7 54 11.3 100980 82
2001-12-04 11:19 51°8.778 2°33.39 1.7 97 11.2 100980 82
2001-12-04 11:20 51°8.779 2°33.41 0.2 45 11.2 100990 82
2001-12-04 11:21 51°8.781 2°33.428 1 113 11.2 100980 82
2001-12-04 11:22 51°8.783 2°33.446 1.6 76 11.2 100990 82
2001-12-04 11:23 51°8.786 2°33.465 0.9 64 11.2 100990 82
2001-12-04 11:24 51°8.788 2°33.486 0.7 56 11.2 101000 82
2001-12-04 11:25 51°8.79 2°33.506 0.7 59 11.2 101000 82
2001-12-04 11:26 51°8.792 2°33.527 0.9 61 11.2 100960 82
2001-12-04 11:27 51°8.794 2°33.55 0.8 31 11.2 100960 82
2001-12-04 11:28 51°8.795 2°33.575 1.1 61 11.3 100970 82
2001-12-04 11:29 51°8.796 2°33.598 0.5 70 11.2 100970 82
2001-12-04 11:30 51°8.796 2°33.622 2.4 80 11.2 100980 82
2001-12-04 11:31 51°8.797 2°33.646 1.3 75 11.2 100980 82
2001-12-04 11:32 51°8.799 2°33.673 1 55 11.2 100980 82
2001-12-04 11:33 51°8.802 2°33.698 2.1 66 11.2 100990 82
2001-12-04 11:34 51°8.806 2°33.723 2.4 125 11.2 100990 82
2001-12-04 11:35 51°8.81 2°33.747 0.4 52 11.2 100990 82
2001-12-04 11:36 51°8.814 2°33.774 0.9 58 11.2 100990 82
2001-12-04 11:37 51°8.818 2°33.801 0.3 61 11.2 100990 82
2001-12-04 11:38 51°8.819 2°33.831 0.5 63 11.2 101000 82
2001-12-04 11:39 51°8.821 2°33.861 0.3 72 11.2 100990 82
2001-12-04 11:40 51°8.824 2°33.892 3.2 83 11.2 101000 82
2001-12-04 11:41 51°8.829 2°33.922 0.7 54 11.2 100990 81
2001-12-04 11:42 51°8.834 2°33.954 1.4 64 11.2 101000 81
2001-12-04 11:43 51°8.839 2°33.985 0.8 67 11.2 101000 82
2001-12-04 11:44 51°8.845 2°34.016 0.7 58 11.1 101010 82
2001-12-04 11:45 51°8.852 2°34.047 2.3 348 11.2 101000 82
2001-12-04 11:46 51°8.859 2°34.077 2 326 11.2 101000 82
2001-12-04 11:47 51°8.866 2°34.109 0.6 91 11.1 101000 82
2001-12-04 11:48 51°8.873 2°34.142 1.5 54 11.1 100990 81
2001-12-04 11:49 51°8.88 2°34.176 0.6 89 11.2 101010 81
2001-12-04 11:50 51°8.886 2°34.212 1.6 70 11.2 101020 81
2001-12-04 11:51 51°8.893 2°34.247 2.4 64 11.1 101010 82
2001-12-04 11:52 51°8.901 2°34.284 1.4 81 11.2 101010 82
2001-12-04 11:53 51°8.91 2°34.319 0.8 72 11.1 101010 82
2001-12-04 11:54 51°8.93 2°34.348 6.6 308 11.1 101010 82
2001-12-04 11:55 51°8.969 2°34.339 14.6 18 11.2 101010 82
2001-12-04 11:56 51°8.968 2°34.236 15.4 309 11.2 101010 81
2001-12-04 11:57 51°8.895 2°34.13 14.8 314 11.2 100970 81
2001-12-04 11:58 51°8.824 2°33.995 15.2 311 11.2 100990 82
2001-12-04 11:59 51°8.753 2°33.856 17.6 320 11.2 100980 81
2001-12-04 12:00 51°8.685 2°33.716 15 319 11.2 100990 81
2001-12-04 12:01 51°8.609 2°33.581 15.6 314 11.2 100980 81
2001-12-04 12:02 51°8.535 2°33.443 15.5 319 11.2 101010 82
2001-12-04 12:03 51°8.47 2°33.306 14.3 315 11.2 101000 81
2001-12-04 12:04 51°8.406 2°33.16 15.6 327 11.2 100980 81
2001-12-04 12:05 51°8.343 2°33.016 15.2 309 11.2 100990 81
2001-12-04 12:06 51°8.272 2°32.877 15.8 310 11.3 101010 81
2001-12-04 12:07 51°8.199 2°32.74 14.3 321 11.2 101010 81
2001-12-04 12:08 51°8.142 2°32.588 14.4 315 11.2 101010 81
2001-12-04 12:09 51°8.077 2°32.441 14.6 324 11.2 101010 81
2001-12-04 12:10 51°8.01 2°32.296 14 311 11.2 101000 81
2001-12-04 12:11 51°7.933 2°32.166 14.7 328 11.2 101000 81
2001-12-04 12:12 51°7.874 2°32.017 14.7 314 11.2 101010 81
2001-12-04 12:13 51°7.803 2°31.877 14.4 310 11.2 101010 81
2001-12-04 12:14 51°7.722 2°31.694 16.1 317 11.2 100980 81
2001-12-04 12:15 51°7.636 2°31.501 15.8 311 11.2 100990 81
2001-12-04 12:16 51°7.522 2°31.35 14.9 309 11.2 101010 81
2001-12-04 12:17 51°7.413 2°31.186 14.1 311 11.2 100990 81
2001-12-04 12:18 51°7.311 2°31.009 16.8 315 11.2 100990 81
2001-12-04 12:19 51°7.191 2°30.869 12.2 290 11.2 101000 81
2001-12-04 12:20 51°7.061 2°30.745 13.6 314 11.2 101010 81
2001-12-04 12:21 51°6.932 2°30.621 12.4 299 11.2 101010 82
2001-12-04 12:22 51°6.805 2°30.485 14.9 309 11.2 101020 82
2001-12-04 12:23 51°6.683 2°30.341 14.4 305 11.2 101010 82
2001-12-04 12:24 51°6.559 2°30.197 15.8 309 11.2 101010 82
2001-12-04 12:25 51°6.423 2°30.084 11.2 285 11.2 101020 82
2001-12-04 12:26 51°6.26 2°30.119 8.7 261 11.2 101060 82
2001-12-04 12:27 51°6.092 2°30.199 9.1 260 11.2 101050 82
2001-12-04 12:28 51°5.963 2°30.369 3.8 173 11.2 101070 81
2001-12-04 12:29 51°6.009 2°30.671 1.2 82 11.2 101080 81
2001-12-04 12:30 51°6.121 2°30.982 1.6 102 11.2 101080 82
2001-12-04 12:31 51°6.242 2°31.315 1.2 56 11.2 101090 82
2001-12-04 12:32 51°6.372 2°31.658 1.5 86 11.2 101080 82
2001-12-04 12:33 51°6.47 2°32.03 1.2 75 11.2 101080 82
2001-12-04 12:34 51°6.592 2°32.379 1.4 73 11.2 101080 81
2001-12-04 12:35 51°6.713 2°32.709 1.4 142 11.2 101080 82
2001-12-04 12:36 51°6.741 2°32.866 6.4 121 11.3 101080 81
2001-12-04 12:37 51°6.744 2°32.912 1.6 97 11.3 101070 81
2001-12-04 12:38 51°6.795 2°32.951 6.7 260 11.3 101070 81
2001-12-04 12:39 51°6.815 2°33.002 9.7 42 11.3 101070 82
2001-12-04 12:40 51°6.839 2°32.959 10.6 328 11.2 101070 81
2001-12-04 12:41 51°6.825 2°32.976 9.6 286 11.2 101070 82
2001-12-04 12:42 51°6.816 2°33.014 8.6 306 11.2 101070 82
2001-12-04 12:43 51°6.807 2°33.04 10 316 11.1 101070 82
2001-12-04 12:44 51°6.796 2°33.056 8.7 311 11.1 101080 82
2001-12-04 12:45 51°6.782 2°33.067 9.7 320 11.1 101070 82
2001-12-04 12:46 51°6.766 2°33.075 10.1 303 11.1 101070 82
2001-12-04 12:47 51°6.748 2°33.078 14.1 338 11.1 101070 81
2001-12-04 12:48 51°6.745 2°32.955 14.5 341 11.1 101070 81
2001-12-04 12:49 51°6.737 2°32.773 17.9 342 11.2 101070 81
2001-12-04 12:50 51°6.708 2°32.65 12.6 340 11.2 101080 81
2001-12-04 12:51 51°6.71 2°32.655 10.7 328 11.2 101090 81
2001-12-04 12:52 51°6.71 2°32.677 9.4 321 11.2 101090 81
2001-12-04 12:53 51°6.711 2°32.703 11.2 331 11.2 101080 81
2001-12-04 12:54 51°6.71 2°32.715 10.9 338 11.2 101090 81
2001-12-04 12:55 51°6.709 2°32.722 10.6 332 11.2 101080 81
2001-12-04 12:56 51°6.705 2°32.735 9.2 324 11.2 101090 81
2001-12-04 12:57 51°6.697 2°32.742 9.8 329 11.2 101080 81
2001-12-04 12:58 51°6.695 2°32.742 11.3 345 11.2 101090 82
2001-12-04 12:59 51°6.7 2°32.745 11.7 340 11.2 101090 81
2001-12-04 13:00 51°6.7 2°32.76 8.9 315 11.2 101090 81
2001-12-04 13:01 51°6.691 2°32.778 11 321 11.2 101090 82
2001-12-04 13:02 51°6.69 2°32.789 10 338 11.2 101100 82
2001-12-04 13:03 51°6.688 2°32.8 9.3 314 11.2 101100 82
2001-12-04 13:04 51°6.677 2°32.812 8.8 307 11.2 101090 82
2001-12-04 13:05 51°6.664 2°32.818 10.1 322 11.1 101100 82
2001-12-04 13:06 51°6.657 2°32.832 9 314 11.2 101100 82
2001-12-04 13:07 51°6.654 2°32.857 9.6 317 11.1 101100 82
2001-12-04 13:08 51°6.649 2°32.884 7.9 300 11.1 101100 82
2001-12-04 13:09 51°6.617 2°32.782 17 337 11.1 101100 82
2001-12-04 13:10 51°6.539 2°32.529 18.7 337 11.2 101080 81
2001-12-04 13:11 51°6.507 2°32.235 19.5 335 11.3 101090 81
2001-12-04 13:12 51°6.464 2°31.943 20.2 337 11.3 101090 81
2001-12-04 13:13 51°6.402 2°31.658 20.3 338 11.3 101090 81
2001-12-04 13:14 51°6.376 2°31.358 19.5 338 11.3 101090 81
2001-12-04 13:15 51°6.361 2°31.052 21.1 342 11.3 101090 81
2001-12-04 13:16 51°6.417 2°30.792 20.3 18 11.3 101070 80
2001-12-04 13:17 51°6.511 2°30.679 14.3 17 11.3 101080 80
2001-12-04 13:18 51°6.572 2°30.598 16.1 16 11.3 101090 81
2001-12-04 13:19 51°6.644 2°30.547 9.9 32 11.3 101120 80
2001-12-04 13:20 51°6.745 2°30.497 9.7 28 11.2 101100 80
2001-12-04 13:21 51°6.916 2°30.654 0.4 63 11.2 101150 80
2001-12-04 13:22 51°7.062 2°30.969 1.7 71 11.2 101150 80
2001-12-04 13:23 51°7.193 2°31.299 1.7 93 11.2 101150 80
2001-12-04 13:24 51°7.334 2°31.627 2.2 75 11.2 101160 80
2001-12-04 13:25 51°7.454 2°31.975 1.4 128 11.2 101160 80
2001-12-04 13:26 51°7.467 2°32.349 2 202 11.2 101150 80
2001-12-04 13:27 51°7.437 2°32.654 5 204 11.2 101150 80
2001-12-04 13:28 51°7.398 2°32.884 5.1 204 11.2 101150 80
2001-12-04 13:29 51°7.353 2°33.053 5.5 214 11.2 101150 80
2001-12-04 13:30 51°7.411 2°33.23 9.3 95 11.2 101160 81
2001-12-04 13:31 51°7.504 2°33.146 14.2 3 11.2 101150 79
2001-12-04 13:32 51°7.522 2°33.141 12.6 344 11.2 101160 79
2001-12-04 13:33 51°7.525 2°33.164 10.5 310 11.2 101130 79
2001-12-04 13:34 51°7.513 2°33.16 13.4 334 11.2 101140 80
2001-12-04 13:35 51°7.515 2°33.162 13.1 347 11.2 101150 79
2001-12-04 13:36 51°7.524 2°33.172 11.6 349 11.2 101160 79
2001-12-04 13:37 51°7.534 2°33.18 12.8 353 11.2 101150 79
2001-12-04 13:38 51°7.541 2°33.178 12.8 344 11.2 101160 79
2001-12-04 13:39 51°7.541 2°33.177 10.4 325 11.2 101140 78
2001-12-04 13:40 51°7.536 2°33.175 10 331 11.2 101140 79
2001-12-04 13:41 51°7.528 2°33.17 13 334 11.2 101150 79
2001-12-04 13:42 51°7.524 2°33.162 13.5 345 11.1 101150 79
2001-12-04 13:43 51°7.544 2°33.071 19.9 27 11.2 101180 79
2001-12-04 13:44 51°7.72 2°33.003 5.7 123 11.2 101160 79
2001-12-04 13:45 51°7.911 2°33.23 2.3 13 11.1 101180 79
2001-12-04 13:46 51°8.115 2°33.47 1.8 291 11.1 101180 79
2001-12-04 13:47 51°8.305 2°33.727 1.3 226 11.1 101180 78
2001-12-04 13:48 51°8.472 2°34.04 1.6 124 11.1 101180 79
2001-12-04 13:49 51°8.606 2°34.383 2.8 111 11.1 101180 79
2001-12-04 13:50 51°8.748 2°34.73 1.8 107 11.1 101180 79
2001-12-04 13:51 51°8.871 2°35.095 2.7 144 11.1 101180 79
2001-12-04 13:52 51°8.995 2°35.458 1.7 85 11.1 101190 79
2001-12-04 13:53 51°9.118 2°35.819 2.9 132 11.1 101180 79
2001-12-04 13:54 51°9.231 2°36.192 2 125 11.1 101190 79
2001-12-04 13:55 51°9.349 2°36.563 2.5 137 11.1 101190 79
2001-12-04 13:56 51°9.466 2°36.93 0.9 139 11.1 101180 78
2001-12-04 13:57 51°9.582 2°37.3 0.4 126 11.1 101180 78
2001-12-04 13:58 51°9.687 2°37.683 1.7 150 11.1 101180 78
2001-12-04 13:59 51°9.792 2°38.061 2.2 118 11 101180 77
2001-12-04 14:00 51°9.902 2°38.439 1.5 139 11.1 101180 77
2001-12-04 14:01 51°10.006 2°38.821 1.5 145 11.1 101180 77
2001-12-04 14:02 51°10.117 2°39.195 1.3 120 11.1 101190 78
2001-12-04 14:03 51°10.218 2°39.574 1.8 136 11 101180 76
2001-12-04 14:04 51°10.322 2°39.95 1.9 129 11.1 101180 76
2001-12-04 14:05 51°10.425 2°40.323 2 146 11.1 101180 78
2001-12-04 14:06 51°10.52 2°40.704 2.5 134 11.1 101180 78
2001-12-04 14:07 51°10.612 2°41.086 4.7 144 11 101190 76
2001-12-04 14:08 51°10.709 2°41.468 3.3 144 11.1 101190 75
2001-12-04 14:09 51°10.803 2°41.848 2.9 141 11.1 101200 75
2001-12-04 14:10 51°10.937 2°42.136 10 357 11.1 101200 76
2001-12-04 14:11 51°11.079 2°41.976 19.9 24 11.1 101190 77
2001-12-04 14:12 51°11.161 2°41.728 19.7 18 11.1 101130 76
2001-12-04 14:13 51°11.243 2°41.49 22.4 25 11.2 101130 76
2001-12-04 14:14 51°11.393 2°41.405 0.5 68 11.1 101170 75
2001-12-04 14:15 51°11.446 2°41.745 2 166 11.1 101200 76
2001-12-04 14:16 51°11.394 2°42.127 4.4 232 11.2 101200 75
2001-12-04 14:17 51°11.313 2°42.475 6.6 257 11.2 101200 76
2001-12-04 14:18 51°11.21 2°42.735 7.5 232 11.1 101190 75
2001-12-04 14:19 51°11.126 2°43.017 5.5 213 11.1 101170 76
2001-12-04 14:20 51°11.133 2°43.395 1.9 152 11.1 101210 75
2001-12-04 14:21 51°11.189 2°43.794 0.9 149 11.1 101220 76
2001-12-04 14:22 51°11.25 2°44.183 2.7 121 11.1 101220 76
2001-12-04 14:23 51°11.322 2°44.573 1.7 136 11.1 101220 77
2001-12-04 14:24 51°11.384 2°44.966 1.7 139 11 101220 77
2001-12-04 14:25 51°11.464 2°45.342 2.1 134 11 101220 77
2001-12-04 14:26 51°11.576 2°45.701 2.9 125 11 101220 76
2001-12-04 14:27 51°11.669 2°46.077 1.8 126 11 101220 77
2001-12-04 14:28 51°11.777 2°46.443 2.3 132 10.9 101230 77
2001-12-04 14:29 51°11.875 2°46.812 2.2 128 10.9 101230 75
2001-12-04 14:30 51°11.998 2°47.158 2.6 123 10.9 101230 76
2001-12-04 14:31 51°12.123 2°47.511 1.6 131 11 101210 76
2001-12-04 14:32 51°12.241 2°47.871 3.5 141 10.9 101220 76
2001-12-04 14:33 51°12.361 2°48.234 1.4 128 10.9 101220 76
2001-12-04 14:34 51°12.489 2°48.584 1.7 148 10.9 101210 75
2001-12-04 14:35 51°12.603 2°48.949 3.6 142 10.9 101230 76
2001-12-04 14:36 51°12.721 2°49.297 2.3 126 10.9 101220 76
2001-12-04 14:37 51°12.844 2°49.655 2.3 138 10.9 101220 77
2001-12-04 14:38 51°12.966 2°50.014 2.2 121 10.9 101220 77
2001-12-04 14:39 51°13.093 2°50.369 2.6 125 10.9 101210 77
2001-12-04 14:40 51°13.212 2°50.727 2.2 132 10.9 101230 76
2001-12-04 14:41 51°13.324 2°51.095 0.7 137 10.8 101220 76
2001-12-04 14:42 51°13.433 2°51.466 2.5 115 10.8 101230 76
2001-12-04 14:43 51°13.545 2°51.825 2.6 109 10.9 101230 76
2001-12-04 14:44 51°13.662 2°52.184 2.9 143 10.8 101220 77
2001-12-04 14:45 51°13.778 2°52.537 2.4 131 10.8 101230 78
2001-12-04 14:46 51°13.886 2°52.898 0.8 127 10.8 101220 77
2001-12-04 14:47 51°14.01 2°53.242 3.2 124 10.8 101230 78
2001-12-04 14:48 51°14.139 2°53.595 2.2 104 10.8 101230 77
2001-12-04 14:49 51°14.274 2°53.933 1.8 107 10.8 101220 77
2001-12-04 14:50 51°14.365 2°54.299 1.1 300 10.8 101240 77
2001-12-04 14:51 51°14.369 2°54.664 3.6 192 10.8 101240 77
2001-12-04 14:52 51°14.359 2°55.018 3.3 216 10.8 101240 77
2001-12-04 14:53 51°14.263 2°55.269 6.7 249 10.8 101230 77
2001-12-04 14:54 51°14.131 2°55.412 5.2 284 10.8 101220 77
2001-12-04 14:55 51°14.003 2°55.496 4.2 276 10.8 101230 76
2001-12-04 14:56 51°13.862 2°55.599 7.4 312 10.8 101230 75
2001-12-04 14:57 51°13.772 2°55.701 2.6 209 10.8 101240 75
2001-12-04 14:58 51°13.731 2°55.784 1.6 163 10.9 101240 75
2001-12-04 14:59 51°13.7 2°55.845 6.5 219 10.9 101250 75
2001-12-04 15:00 51°13.686 2°55.903 4.4 191 10.9 101250 74